Weather at London Airport

Public forecast

Using degrees Celsius for public forecast. Weather courtesy of forecast.io.

Current aviation weather report (METAR) for London Airport

Retrieved 2020/09/23 07:00 UTC (14 minutes ago):

CYXU 230700Z 27004KT 15SM SKC 13/09 A3001 RMK SLP162

Aviation forecast (TAF) for London Airport

Retrieved 2020/09/23 06:39 UTC (35 minutes ago):

TAF CYXU 230538Z 2306/2406 26007KT P6SM SKC PROB30 2309/2313 1SM BR FM231400 29010KT P6SM SKC FM232000 27012KT P6SM FEW060 BECMG 2323/2401 24005KT RMK NXT FCST BY 231200Z